• Fur Affinity Forums are governed by Fur Affinity's Rules and Policies. Links and additional information can be accessed in the Site Information Forum.
Diggz1286
Reaction score
0

Profile posts Latest activity Postings About

  • There are several bronies on this forum. Generally a good way to get acquainted is to participate in the forum games.

    If possible contact via skype. It is a much easier medium for me to communicate across.
    Metar KMLB 130253Z 21006KT 10SM CLR 17/12 A2996 RMK AO2 SLP144 T01720122 51013

    This is what is up in my location.
    Okay, I searched that up and got 200 hits.
    None of them have greenplate.

    You can add me though: gypsy.of.tech
    Ello ello ello!
    I'm just a little stressed right now. I'm trying to find my way through FA.
    But I'm getting there...slowly

    How's you?
  • Loading…
  • Loading…
  • Loading…
Top